sensor_id;sensor_type;location;lat;lon;timestamp;P1;durP1;ratioP1;P2;durP2;ratioP2
8293;SDS011;4185;41.506;24.938;2023-08-06T00:00:21;9.00;;;7.60;;
8293;SDS011;4185;41.506;24.938;2023-08-06T00:02:48;8.30;;;7.33;;
8293;SDS011;4185;41.506;24.938;2023-08-06T00:05:15;9.60;;;7.37;;
8293;SDS011;4185;41.506;24.938;2023-08-06T00:07:43;9.47;;;7.53;;
8293;SDS011;4185;41.506;24.938;2023-08-06T00:10:10;8.47;;;7.67;;
8293;SDS011;4185;41.506;24.938;2023-08-06T00:12:37;8.70;;;7.87;;
8293;SDS011;4185;41.506;24.938;2023-08-06T00:15:05;8.77;;;7.60;;
8293;SDS011;4185;41.506;24.938;2023-08-06T00:17:33;9.27;;;7.70;;
8293;SDS011;4185;41.506;24.938;2023-08-06T00:20:00;8.87;;;7.93;;
8293;SDS011;4185;41.506;24.938;2023-08-06T00:22:29;10.07;;;7.33;;
8293;SDS011;4185;41.506;24.938;2023-08-06T00:24:56;8.50;;;7.60;;
8293;SDS011;4185;41.506;24.938;2023-08-06T00:27:23;8.33;;;7.57;;
8293;SDS011;4185;41.506;24.938;2023-08-06T00:29:50;9.47;;;8.57;;
8293;SDS011;4185;41.506;24.938;2023-08-06T00:32:19;8.83;;;7.97;;
8293;SDS011;4185;41.506;24.938;2023-08-06T00:34:46;8.70;;;7.80;;
8293;SDS011;4185;41.506;24.938;2023-08-06T00:37:14;8.07;;;7.27;;
8293;SDS011;4185;41.506;24.938;2023-08-06T00:39:41;8.43;;;7.63;;
8293;SDS011;4185;41.506;24.938;2023-08-06T00:42:08;8.67;;;7.50;;
8293;SDS011;4185;41.506;24.938;2023-08-06T00:44:35;9.37;;;7.23;;
8293;SDS011;4185;41.506;24.938;2023-08-06T00:47:02;9.07;;;7.73;;
8293;SDS011;4185;41.506;24.938;2023-08-06T00:49:31;9.30;;;7.50;;
8293;SDS011;4185;41.506;24.938;2023-08-06T00:51:57;8.37;;;7.57;;
8293;SDS011;4185;41.506;24.938;2023-08-06T00:54:25;8.17;;;7.30;;
8293;SDS011;4185;41.506;24.938;2023-08-06T00:56:53;8.77;;;7.97;;
8293;SDS011;4185;41.506;24.938;2023-08-06T00:59:20;9.00;;;8.10;;
8293;SDS011;4185;41.506;24.938;2023-08-06T01:01:47;12.13;;;7.90;;
8293;SDS011;4185;41.506;24.938;2023-08-06T01:04:15;9.13;;;7.77;;
8293;SDS011;4185;41.506;24.938;2023-08-06T01:06:44;8.83;;;7.93;;
8293;SDS011;4185;41.506;24.938;2023-08-06T01:09:18;10.50;;;7.90;;
8293;SDS011;4185;41.506;24.938;2023-08-06T01:11:56;9.20;;;7.43;;
8293;SDS011;4185;41.506;24.938;2023-08-06T01:14:30;8.97;;;7.83;;
8293;SDS011;4185;41.506;24.938;2023-08-06T01:17:03;9.73;;;8.10;;
8293;SDS011;4185;41.506;24.938;2023-08-06T01:19:31;9.60;;;8.63;;
8293;SDS011;4185;41.506;24.938;2023-08-06T01:21:59;9.80;;;8.00;;
8293;SDS011;4185;41.506;24.938;2023-08-06T01:24:26;10.77;;;8.73;;
8293;SDS011;4185;41.506;24.938;2023-08-06T01:26:55;9.50;;;8.10;;
8293;SDS011;4185;41.506;24.938;2023-08-06T01:29:31;9.43;;;7.87;;
8293;SDS011;4185;41.506;24.938;2023-08-06T01:32:01;9.73;;;8.73;;
8293;SDS011;4185;41.506;24.938;2023-08-06T01:34:31;9.70;;;8.70;;
8293;SDS011;4185;41.506;24.938;2023-08-06T01:37:01;10.37;;;8.67;;
8293;SDS011;4185;41.506;24.938;2023-08-06T01:39:29;9.37;;;8.20;;
8293;SDS011;4185;41.506;24.938;2023-08-06T01:41:59;8.03;;;7.33;;
8293;SDS011;4185;41.506;24.938;2023-08-06T01:44:25;9.83;;;8.87;;
8293;SDS011;4185;41.506;24.938;2023-08-06T01:46:52;9.43;;;8.33;;
8293;SDS011;4185;41.506;24.938;2023-08-06T01:49:19;9.83;;;8.30;;
8293;SDS011;4185;41.506;24.938;2023-08-06T01:51:46;9.07;;;8.17;;
8293;SDS011;4185;41.506;24.938;2023-08-06T01:54:14;9.43;;;8.43;;
8293;SDS011;4185;41.506;24.938;2023-08-06T01:56:41;9.93;;;8.60;;
8293;SDS011;4185;41.506;24.938;2023-08-06T01:59:08;9.53;;;8.57;;
8293;SDS011;4185;41.506;24.938;2023-08-06T02:01:34;9.50;;;8.03;;
8293;SDS011;4185;41.506;24.938;2023-08-06T02:04:01;9.23;;;8.07;;
8293;SDS011;4185;41.506;24.938;2023-08-06T02:06:28;9.43;;;8.07;;
8293;SDS011;4185;41.506;24.938;2023-08-06T02:08:55;10.30;;;9.20;;
8293;SDS011;4185;41.506;24.938;2023-08-06T02:11:23;10.00;;;9.00;;
8293;SDS011;4185;41.506;24.938;2023-08-06T02:13:50;9.83;;;8.43;;
8293;SDS011;4185;41.506;24.938;2023-08-06T02:16:17;11.47;;;9.57;;
8293;SDS011;4185;41.506;24.938;2023-08-06T02:18:43;11.37;;;9.13;;
8293;SDS011;4185;41.506;24.938;2023-08-06T02:21:10;8.90;;;7.97;;
8293;SDS011;4185;41.506;24.938;2023-08-06T02:23:37;9.10;;;7.70;;
8293;SDS011;4185;41.506;24.938;2023-08-06T02:26:04;9.73;;;8.73;;
8293;SDS011;4185;41.506;24.938;2023-08-06T02:28:32;10.40;;;9.17;;
8293;SDS011;4185;41.506;24.938;2023-08-06T02:30:59;9.17;;;8.20;;
8293;SDS011;4185;41.506;24.938;2023-08-06T02:33:26;9.20;;;8.10;;
8293;SDS011;4185;41.506;24.938;2023-08-06T02:35:58;9.80;;;8.27;;
8293;SDS011;4185;41.506;24.938;2023-08-06T02:38:26;9.27;;;8.37;;
8293;SDS011;4185;41.506;24.938;2023-08-06T02:40:53;10.37;;;9.33;;
8293;SDS011;4185;41.506;24.938;2023-08-06T02:43:19;9.60;;;8.30;;
8293;SDS011;4185;41.506;24.938;2023-08-06T02:45:47;10.70;;;8.87;;
8293;SDS011;4185;41.506;24.938;2023-08-06T02:48:14;10.40;;;8.47;;
8293;SDS011;4185;41.506;24.938;2023-08-06T02:50:43;10.17;;;8.80;;
8293;SDS011;4185;41.506;24.938;2023-08-06T02:53:10;9.57;;;8.57;;
8293;SDS011;4185;41.506;24.938;2023-08-06T02:55:36;12.57;;;8.50;;
8293;SDS011;4185;41.506;24.938;2023-08-06T02:58:03;9.57;;;8.03;;
8293;SDS011;4185;41.506;24.938;2023-08-06T03:00:30;9.63;;;8.17;;
8293;SDS011;4185;41.506;24.938;2023-08-06T03:02:58;10.03;;;8.23;;
8293;SDS011;4185;41.506;24.938;2023-08-06T03:05:25;9.83;;;8.20;;
8293;SDS011;4185;41.506;24.938;2023-08-06T03:07:51;11.33;;;9.23;;
8293;SDS011;4185;41.506;24.938;2023-08-06T03:10:18;9.30;;;8.43;;
8293;SDS011;4185;41.506;24.938;2023-08-06T03:12:45;11.03;;;9.00;;
8293;SDS011;4185;41.506;24.938;2023-08-06T03:15:12;9.87;;;8.87;;
8293;SDS011;4185;41.506;24.938;2023-08-06T03:17:39;10.73;;;8.70;;
8293;SDS011;4185;41.506;24.938;2023-08-06T03:20:08;11.07;;;9.50;;
8293;SDS011;4185;41.506;24.938;2023-08-06T03:22:35;13.20;;;8.57;;
8293;SDS011;4185;41.506;24.938;2023-08-06T03:25:01;9.53;;;8.57;;
8293;SDS011;4185;41.506;24.938;2023-08-06T03:27:29;9.97;;;8.93;;
8293;SDS011;4185;41.506;24.938;2023-08-06T03:29:55;10.70;;;8.70;;
8293;SDS011;4185;41.506;24.938;2023-08-06T03:32:22;10.13;;;8.57;;
8293;SDS011;4185;41.506;24.938;2023-08-06T03:34:49;10.27;;;8.77;;
8293;SDS011;4185;41.506;24.938;2023-08-06T03:37:17;12.13;;;9.40;;
8293;SDS011;4185;41.506;24.938;2023-08-06T03:39:44;9.47;;;8.53;;
8293;SDS011;4185;41.506;24.938;2023-08-06T03:42:10;10.83;;;8.83;;
8293;SDS011;4185;41.506;24.938;2023-08-06T03:44:37;10.80;;;9.20;;
8293;SDS011;4185;41.506;24.938;2023-08-06T03:47:04;10.00;;;9.00;;
8293;SDS011;4185;41.506;24.938;2023-08-06T03:49:31;10.37;;;9.07;;
8293;SDS011;4185;41.506;24.938;2023-08-06T03:51:57;10.13;;;9.13;;
8293;SDS011;4185;41.506;24.938;2023-08-06T03:54:25;12.63;;;9.63;;
8293;SDS011;4185;41.506;24.938;2023-08-06T03:56:52;12.30;;;8.83;;
8293;SDS011;4185;41.506;24.938;2023-08-06T03:59:18;10.00;;;8.33;;
8293;SDS011;4185;41.506;24.938;2023-08-06T04:01:45;10.50;;;9.43;;
8293;SDS011;4185;41.506;24.938;2023-08-06T04:04:12;10.40;;;9.37;;
8293;SDS011;4185;41.506;24.938;2023-08-06T04:06:39;10.53;;;9.17;;
8293;SDS011;4185;41.506;24.938;2023-08-06T04:09:05;10.17;;;9.07;;
8293;SDS011;4185;41.506;24.938;2023-08-06T04:11:33;10.40;;;9.30;;
8293;SDS011;4185;41.506;24.938;2023-08-06T04:14:00;9.67;;;8.67;;
8293;SDS011;4185;41.506;24.938;2023-08-06T04:16:27;10.80;;;9.63;;
8293;SDS011;4185;41.506;24.938;2023-08-06T04:18:54;11.33;;;10.10;;
8293;SDS011;4185;41.506;24.938;2023-08-06T04:21:21;11.57;;;9.50;;
8293;SDS011;4185;41.506;24.938;2023-08-06T04:23:48;11.20;;;10.10;;
8293;SDS011;4185;41.506;24.938;2023-08-06T04:26:15;10.70;;;9.40;;
8293;SDS011;4185;41.506;24.938;2023-08-06T04:28:43;11.57;;;9.87;;
8293;SDS011;4185;41.506;24.938;2023-08-06T04:31:10;12.03;;;10.33;;
8293;SDS011;4185;41.506;24.938;2023-08-06T04:33:36;10.63;;;9.50;;
8293;SDS011;4185;41.506;24.938;2023-08-06T04:36:03;14.63;;;10.50;;
8293;SDS011;4185;41.506;24.938;2023-08-06T04:38:30;10.83;;;9.73;;
8293;SDS011;4185;41.506;24.938;2023-08-06T04:40:57;14.80;;;11.07;;
8293;SDS011;4185;41.506;24.938;2023-08-06T04:43:24;13.63;;;10.77;;
8293;SDS011;4185;41.506;24.938;2023-08-06T04:45:53;14.60;;;11.60;;
8293;SDS011;4185;41.506;24.938;2023-08-06T04:48:20;12.27;;;10.67;;
8293;SDS011;4185;41.506;24.938;2023-08-06T04:50:47;12.93;;;10.30;;
8293;SDS011;4185;41.506;24.938;2023-08-06T04:53:16;16.93;;;11.90;;
8293;SDS011;4185;41.506;24.938;2023-08-06T04:55:42;17.73;;;11.17;;
8293;SDS011;4185;41.506;24.938;2023-08-06T04:58:10;12.27;;;10.60;;
8293;SDS011;4185;41.506;24.938;2023-08-06T05:00:37;11.77;;;10.23;;
8293;SDS011;4185;41.506;24.938;2023-08-06T05:03:05;13.63;;;11.50;;
8293;SDS011;4185;41.506;24.938;2023-08-06T05:05:32;12.07;;;10.40;;
8293;SDS011;4185;41.506;24.938;2023-08-06T05:07:58;13.20;;;11.30;;
8293;SDS011;4185;41.506;24.938;2023-08-06T05:10:25;16.70;;;11.37;;
8293;SDS011;4185;41.506;24.938;2023-08-06T05:12:52;13.20;;;10.90;;
8293;SDS011;4185;41.506;24.938;2023-08-06T05:15:19;13.30;;;10.87;;
8293;SDS011;4185;41.506;24.938;2023-08-06T05:17:46;15.03;;;11.60;;
8293;SDS011;4185;41.506;24.938;2023-08-06T05:20:14;12.43;;;11.13;;
8293;SDS011;4185;41.506;24.938;2023-08-06T05:22:42;11.73;;;10.20;;
8293;SDS011;4185;41.506;24.938;2023-08-06T05:25:11;8.63;;;7.73;;
8293;SDS011;4185;41.506;24.938;2023-08-06T05:27:39;9.37;;;5.73;;
8293;SDS011;4185;41.506;24.938;2023-08-06T05:30:06;12.53;;;9.03;;
8293;SDS011;4185;41.506;24.938;2023-08-06T05:32:34;11.67;;;9.70;;
8293;SDS011;4185;41.506;24.938;2023-08-06T05:35:00;12.30;;;9.83;;
8293;SDS011;4185;41.506;24.938;2023-08-06T05:37:29;11.80;;;9.40;;
8293;SDS011;4185;41.506;24.938;2023-08-06T05:39:56;7.40;;;6.60;;
8293;SDS011;4185;41.506;24.938;2023-08-06T05:42:22;6.27;;;4.30;;
8293;SDS011;4185;41.506;24.938;2023-08-06T05:44:49;4.13;;;3.37;;
8293;SDS011;4185;41.506;24.938;2023-08-06T05:47:16;3.90;;;3.03;;
8293;SDS011;4185;41.506;24.938;2023-08-06T05:49:44;3.40;;;3.10;;
8293;SDS011;4185;41.506;24.938;2023-08-06T05:52:11;5.03;;;3.03;;
8293;SDS011;4185;41.506;24.938;2023-08-06T05:54:39;4.33;;;2.80;;
8293;SDS011;4185;41.506;24.938;2023-08-06T05:57:06;4.93;;;4.10;;
8293;SDS011;4185;41.506;24.938;2023-08-06T05:59:33;9.03;;;4.43;;
8293;SDS011;4185;41.506;24.938;2023-08-06T06:02:00;4.90;;;3.50;;
8293;SDS011;4185;41.506;24.938;2023-08-06T06:04:27;6.13;;;3.83;;
8293;SDS011;4185;41.506;24.938;2023-08-06T06:06:54;4.73;;;3.20;;
8293;SDS011;4185;41.506;24.938;2023-08-06T06:09:21;5.67;;;4.20;;
8293;SDS011;4185;41.506;24.938;2023-08-06T06:11:49;6.20;;;4.47;;
8293;SDS011;4185;41.506;24.938;2023-08-06T06:14:16;5.57;;;3.90;;
8293;SDS011;4185;41.506;24.938;2023-08-06T06:16:43;4.80;;;4.00;;
8293;SDS011;4185;41.506;24.938;2023-08-06T06:19:09;6.83;;;4.30;;
8293;SDS011;4185;41.506;24.938;2023-08-06T06:21:36;4.90;;;4.00;;
8293;SDS011;4185;41.506;24.938;2023-08-06T06:24:04;4.77;;;3.97;;
8293;SDS011;4185;41.506;24.938;2023-08-06T06:26:30;5.33;;;4.07;;
8293;SDS011;4185;41.506;24.938;2023-08-06T06:28:59;8.00;;;4.40;;
8293;SDS011;4185;41.506;24.938;2023-08-06T06:31:26;5.13;;;4.10;;
8293;SDS011;4185;41.506;24.938;2023-08-06T06:33:52;6.93;;;3.70;;
8293;SDS011;4185;41.506;24.938;2023-08-06T06:36:19;4.80;;;3.63;;
8293;SDS011;4185;41.506;24.938;2023-08-06T06:38:46;6.33;;;4.30;;
8293;SDS011;4185;41.506;24.938;2023-08-06T06:41:14;6.03;;;4.67;;
8293;SDS011;4185;41.506;24.938;2023-08-06T06:43:41;5.00;;;4.17;;
8293;SDS011;4185;41.506;24.938;2023-08-06T06:46:10;5.10;;;3.70;;
8293;SDS011;4185;41.506;24.938;2023-08-06T06:48:36;4.50;;;3.63;;
8293;SDS011;4185;41.506;24.938;2023-08-06T06:51:03;4.57;;;3.23;;
8293;SDS011;4185;41.506;24.938;2023-08-06T06:53:30;4.07;;;3.33;;
8293;SDS011;4185;41.506;24.938;2023-08-06T06:56:01;4.30;;;3.37;;
8293;SDS011;4185;41.506;24.938;2023-08-06T06:58:29;4.27;;;3.37;;
8293;SDS011;4185;41.506;24.938;2023-08-06T07:00:56;3.97;;;3.00;;
8293;SDS011;4185;41.506;24.938;2023-08-06T07:03:24;4.93;;;3.20;;
8293;SDS011;4185;41.506;24.938;2023-08-06T07:05:51;3.67;;;3.27;;
8293;SDS011;4185;41.506;24.938;2023-08-06T07:08:17;4.83;;;3.00;;
8293;SDS011;4185;41.506;24.938;2023-08-06T07:10:45;3.80;;;3.00;;
8293;SDS011;4185;41.506;24.938;2023-08-06T07:13:11;3.10;;;2.57;;
8293;SDS011;4185;41.506;24.938;2023-08-06T07:15:38;3.07;;;2.77;;
8293;SDS011;4185;41.506;24.938;2023-08-06T07:18:05;3.70;;;2.83;;
8293;SDS011;4185;41.506;24.938;2023-08-06T07:20:33;3.30;;;3.00;;
8293;SDS011;4185;41.506;24.938;2023-08-06T07:23:00;3.30;;;2.83;;
8293;SDS011;4185;41.506;24.938;2023-08-06T07:25:27;3.97;;;2.63;;
8293;SDS011;4185;41.506;24.938;2023-08-06T07:27:53;3.87;;;2.70;;
8293;SDS011;4185;41.506;24.938;2023-08-06T07:30:21;3.30;;;3.00;;
8293;SDS011;4185;41.506;24.938;2023-08-06T07:32:48;4.73;;;3.20;;
8293;SDS011;4185;41.506;24.938;2023-08-06T07:35:15;3.60;;;3.00;;
8293;SDS011;4185;41.506;24.938;2023-08-06T07:37:43;3.67;;;3.20;;
8293;SDS011;4185;41.506;24.938;2023-08-06T07:40:10;3.90;;;3.13;;
8293;SDS011;4185;41.506;24.938;2023-08-06T07:42:38;5.03;;;3.70;;
8293;SDS011;4185;41.506;24.938;2023-08-06T07:45:05;4.37;;;3.67;;
8293;SDS011;4185;41.506;24.938;2023-08-06T07:47:33;4.57;;;3.40;;
8293;SDS011;4185;41.506;24.938;2023-08-06T07:50:00;3.33;;;2.90;;
8293;SDS011;4185;41.506;24.938;2023-08-06T07:52:27;3.83;;;3.43;;
8293;SDS011;4185;41.506;24.938;2023-08-06T07:54:55;3.50;;;3.20;;
8293;SDS011;4185;41.506;24.938;2023-08-06T07:57:22;4.07;;;3.57;;
8293;SDS011;4185;41.506;24.938;2023-08-06T07:59:48;4.50;;;3.80;;
8293;SDS011;4185;41.506;24.938;2023-08-06T08:02:15;3.63;;;3.10;;
8293;SDS011;4185;41.506;24.938;2023-08-06T08:04:42;4.77;;;3.50;;
8293;SDS011;4185;41.506;24.938;2023-08-06T08:07:09;4.00;;;3.60;;
8293;SDS011;4185;41.506;24.938;2023-08-06T08:09:36;4.10;;;3.70;;
8293;SDS011;4185;41.506;24.938;2023-08-06T08:12:04;4.13;;;3.60;;
8293;SDS011;4185;41.506;24.938;2023-08-06T08:14:32;4.13;;;3.73;;
8293;SDS011;4185;41.506;24.938;2023-08-06T08:17:01;4.30;;;3.90;;
8293;SDS011;4185;41.506;24.938;2023-08-06T08:19:28;4.43;;;3.63;;
8293;SDS011;4185;41.506;24.938;2023-08-06T08:21:55;5.07;;;4.00;;
8293;SDS011;4185;41.506;24.938;2023-08-06T08:24:22;4.73;;;4.13;;
8293;SDS011;4185;41.506;24.938;2023-08-06T08:26:50;4.67;;;4.17;;
8293;SDS011;4185;41.506;24.938;2023-08-06T08:29:19;4.37;;;3.97;;
8293;SDS011;4185;41.506;24.938;2023-08-06T08:31:46;5.37;;;4.47;;
8293;SDS011;4185;41.506;24.938;2023-08-06T08:34:14;5.57;;;4.73;;
8293;SDS011;4185;41.506;24.938;2023-08-06T08:36:41;5.10;;;4.67;;
8293;SDS011;4185;41.506;24.938;2023-08-06T08:39:08;6.00;;;5.40;;
8293;SDS011;4185;41.506;24.938;2023-08-06T08:41:35;4.47;;;4.00;;
8293;SDS011;4185;41.506;24.938;2023-08-06T08:44:03;8.93;;;6.00;;
8293;SDS011;4185;41.506;24.938;2023-08-06T08:46:36;7.10;;;5.73;;
8293;SDS011;4185;41.506;24.938;2023-08-06T08:49:03;6.10;;;5.27;;
8293;SDS011;4185;41.506;24.938;2023-08-06T08:51:31;6.70;;;5.83;;
8293;SDS011;4185;41.506;24.938;2023-08-06T08:54:00;7.10;;;6.00;;
8293;SDS011;4185;41.506;24.938;2023-08-06T08:56:29;6.53;;;5.70;;
8293;SDS011;4185;41.506;24.938;2023-08-06T08:58:56;6.13;;;5.60;;
8293;SDS011;4185;41.506;24.938;2023-08-06T09:01:24;7.03;;;5.70;;
8293;SDS011;4185;41.506;24.938;2023-08-06T09:03:52;6.87;;;5.43;;
8293;SDS011;4185;41.506;24.938;2023-08-06T09:06:20;5.00;;;4.60;;
8293;SDS011;4185;41.506;24.938;2023-08-06T09:08:53;5.90;;;5.00;;
8293;SDS011;4185;41.506;24.938;2023-08-06T09:11:27;6.67;;;5.70;;
8293;SDS011;4185;41.506;24.938;2023-08-06T09:13:54;6.88;;;5.50;;
8293;SDS011;4185;41.506;24.938;2023-08-06T09:16:21;6.23;;;5.37;;
8293;SDS011;4185;41.506;24.938;2023-08-06T09:18:48;5.82;;;5.32;;
8293;SDS011;4185;41.506;24.938;2023-08-06T09:21:16;5.07;;;4.57;;
8293;SDS011;4185;41.506;24.938;2023-08-06T09:23:43;6.43;;;4.47;;
8293;SDS011;4185;41.506;24.938;2023-08-06T09:26:11;6.03;;;4.68;;
8293;SDS011;4185;41.506;24.938;2023-08-06T09:28:39;5.65;;;4.63;;
8293;SDS011;4185;41.506;24.938;2023-08-06T09:31:08;5.28;;;4.78;;
8293;SDS011;4185;41.506;24.938;2023-08-06T09:33:35;5.25;;;4.75;;
8293;SDS011;4185;41.506;24.938;2023-08-06T09:36:09;5.35;;;4.40;;
8293;SDS011;4185;41.506;24.938;2023-08-06T09:38:41;4.90;;;4.25;;
8293;SDS011;4185;41.506;24.938;2023-08-06T09:41:08;4.65;;;4.20;;
8293;SDS011;4185;41.506;24.938;2023-08-06T09:43:41;4.57;;;4.15;;
8293;SDS011;4185;41.506;24.938;2023-08-06T09:46:13;3.78;;;3.38;;
8293;SDS011;4185;41.506;24.938;2023-08-06T09:48:44;4.30;;;3.90;;
8293;SDS011;4185;41.506;24.938;2023-08-06T09:51:11;6.70;;;3.78;;
8293;SDS011;4185;41.506;24.938;2023-08-06T09:53:41;5.10;;;4.28;;
8293;SDS011;4185;41.506;24.938;2023-08-06T09:56:08;3.80;;;3.40;;
8293;SDS011;4185;41.506;24.938;2023-08-06T09:58:36;5.13;;;3.80;;
8293;SDS011;4185;41.506;24.938;2023-08-06T10:01:05;3.60;;;3.30;;
8293;SDS011;4185;41.506;24.938;2023-08-06T10:03:33;4.88;;;3.25;;
8293;SDS011;4185;41.506;24.938;2023-08-06T10:06:00;4.70;;;3.33;;
8293;SDS011;4185;41.506;24.938;2023-08-06T10:08:31;5.75;;;3.40;;
8293;SDS011;4185;41.506;24.938;2023-08-06T10:10:59;4.05;;;3.15;;
8293;SDS011;4185;41.506;24.938;2023-08-06T10:13:29;5.45;;;3.22;;
8293;SDS011;4185;41.506;24.938;2023-08-06T10:15:57;6.05;;;3.20;;
8293;SDS011;4185;41.506;24.938;2023-08-06T10:18:23;4.03;;;3.60;;
8293;SDS011;4185;41.506;24.938;2023-08-06T10:20:51;6.15;;;3.38;;
8293;SDS011;4185;41.506;24.938;2023-08-06T10:23:19;14.13;;;8.88;;
8293;SDS011;4185;41.506;24.938;2023-08-06T10:25:46;4.22;;;3.80;;
8293;SDS011;4185;41.506;24.938;2023-08-06T10:28:22;4.75;;;3.22;;
8293;SDS011;4185;41.506;24.938;2023-08-06T10:30:48;4.88;;;4.00;;
8293;SDS011;4185;41.506;24.938;2023-08-06T10:33:16;5.18;;;3.90;;
8293;SDS011;4185;41.506;24.938;2023-08-06T10:35:46;5.35;;;3.47;;
8293;SDS011;4185;41.506;24.938;2023-08-06T10:38:15;4.55;;;3.50;;
8293;SDS011;4185;41.506;24.938;2023-08-06T10:40:48;3.35;;;3.05;;
8293;SDS011;4185;41.506;24.938;2023-08-06T10:43:26;4.15;;;3.47;;
8293;SDS011;4185;41.506;24.938;2023-08-06T10:45:54;3.83;;;3.53;;
8293;SDS011;4185;41.506;24.938;2023-08-06T10:48:30;4.90;;;3.35;;
8293;SDS011;4185;41.506;24.938;2023-08-06T10:50:59;4.13;;;3.60;;
8293;SDS011;4185;41.506;24.938;2023-08-06T10:53:26;4.75;;;3.75;;
8293;SDS011;4185;41.506;24.938;2023-08-06T10:55:53;5.45;;;3.45;;
8293;SDS011;4185;41.506;24.938;2023-08-06T10:58:20;3.70;;;3.30;;
8293;SDS011;4185;41.506;24.938;2023-08-06T11:00:48;4.13;;;3.72;;
8293;SDS011;4185;41.506;24.938;2023-08-06T11:03:15;4.38;;;3.40;;
8293;SDS011;4185;41.506;24.938;2023-08-06T11:05:48;4.85;;;3.75;;
8293;SDS011;4185;41.506;24.938;2023-08-06T11:08:22;3.95;;;2.88;;
8293;SDS011;4185;41.506;24.938;2023-08-06T11:10:49;3.78;;;3.47;;
8293;SDS011;4185;41.506;24.938;2023-08-06T11:13:16;4.88;;;3.75;;
8293;SDS011;4185;41.506;24.938;2023-08-06T11:15:43;4.65;;;3.30;;
8293;SDS011;4185;41.506;24.938;2023-08-06T11:18:12;3.72;;;3.33;;
8293;SDS011;4185;41.506;24.938;2023-08-06T11:20:39;4.68;;;3.53;;
8293;SDS011;4185;41.506;24.938;2023-08-06T11:23:06;3.42;;;3.13;;
8293;SDS011;4185;41.506;24.938;2023-08-06T11:25:36;4.97;;;3.40;;
8293;SDS011;4185;41.506;24.938;2023-08-06T11:28:03;3.78;;;3.47;;
8293;SDS011;4185;41.506;24.938;2023-08-06T11:30:30;3.75;;;3.35;;
8293;SDS011;4185;41.506;24.938;2023-08-06T11:32:57;3.35;;;3.05;;
8293;SDS011;4185;41.506;24.938;2023-08-06T11:35:25;3.90;;;3.08;;
8293;SDS011;4185;41.506;24.938;2023-08-06T11:37:52;3.97;;;3.30;;
8293;SDS011;4185;41.506;24.938;2023-08-06T11:40:19;4.97;;;3.47;;
8293;SDS011;4185;41.506;24.938;2023-08-06T11:42:46;5.32;;;3.00;;
8293;SDS011;4185;41.506;24.938;2023-08-06T11:45:13;3.20;;;2.65;;
8293;SDS011;4185;41.506;24.938;2023-08-06T11:47:40;3.78;;;2.92;;
8293;SDS011;4185;41.506;24.938;2023-08-06T11:50:07;3.60;;;3.10;;
8293;SDS011;4185;41.506;24.938;2023-08-06T11:52:38;3.08;;;2.88;;
8293;SDS011;4185;41.506;24.938;2023-08-06T11:55:08;3.30;;;3.00;;
8293;SDS011;4185;41.506;24.938;2023-08-06T11:57:36;3.08;;;2.78;;
8293;SDS011;4185;41.506;24.938;2023-08-06T12:00:05;3.45;;;3.03;;
8293;SDS011;4185;41.506;24.938;2023-08-06T12:02:33;3.47;;;2.63;;
8293;SDS011;4185;41.506;24.938;2023-08-06T12:05:03;3.42;;;2.75;;
8293;SDS011;4185;41.506;24.938;2023-08-06T12:07:31;3.78;;;2.90;;
8293;SDS011;4185;41.506;24.938;2023-08-06T12:10:05;2.70;;;2.50;;
8293;SDS011;4185;41.506;24.938;2023-08-06T12:12:32;3.55;;;2.80;;
8293;SDS011;4185;41.506;24.938;2023-08-06T12:15:00;3.20;;;2.67;;
8293;SDS011;4185;41.506;24.938;2023-08-06T12:17:26;4.43;;;2.58;;
8293;SDS011;4185;41.506;24.938;2023-08-06T12:19:53;3.10;;;2.60;;
8293;SDS011;4185;41.506;24.938;2023-08-06T12:22:20;2.72;;;2.53;;
8293;SDS011;4185;41.506;24.938;2023-08-06T12:24:47;2.60;;;2.40;;
8293;SDS011;4185;41.506;24.938;2023-08-06T12:27:15;3.00;;;2.60;;
8293;SDS011;4185;41.506;24.938;2023-08-06T12:29:42;5.22;;;2.72;;
8293;SDS011;4185;41.506;24.938;2023-08-06T12:32:10;3.00;;;2.45;;
8293;SDS011;4185;41.506;24.938;2023-08-06T12:34:37;2.47;;;2.28;;
8293;SDS011;4185;41.506;24.938;2023-08-06T12:37:05;3.35;;;2.78;;
8293;SDS011;4185;41.506;24.938;2023-08-06T12:39:32;3.35;;;2.42;;
8293;SDS011;4185;41.506;24.938;2023-08-06T12:41:59;3.28;;;2.83;;
8293;SDS011;4185;41.506;24.938;2023-08-06T12:44:27;3.00;;;2.47;;
8293;SDS011;4185;41.506;24.938;2023-08-06T12:46:54;2.95;;;2.13;;
8293;SDS011;4185;41.506;24.938;2023-08-06T12:49:21;2.95;;;2.65;;
8293;SDS011;4185;41.506;24.938;2023-08-06T12:51:48;4.07;;;2.70;;
8293;SDS011;4185;41.506;24.938;2023-08-06T12:54:16;2.53;;;2.33;;
8293;SDS011;4185;41.506;24.938;2023-08-06T12:56:43;3.80;;;2.38;;
8293;SDS011;4185;41.506;24.938;2023-08-06T12:59:10;3.35;;;2.60;;
8293;SDS011;4185;41.506;24.938;2023-08-06T13:01:39;3.05;;;2.60;;
8293;SDS011;4185;41.506;24.938;2023-08-06T13:04:05;3.92;;;2.17;;
8293;SDS011;4185;41.506;24.938;2023-08-06T13:06:32;1.90;;;1.80;;
8293;SDS011;4185;41.506;24.938;2023-08-06T13:09:01;2.70;;;2.50;;
8293;SDS011;4185;41.506;24.938;2023-08-06T13:11:29;2.97;;;2.50;;
8293;SDS011;4185;41.506;24.938;2023-08-06T13:13:58;3.22;;;2.38;;
8293;SDS011;4185;41.506;24.938;2023-08-06T13:16:30;2.72;;;2.28;;
8293;SDS011;4185;41.506;24.938;2023-08-06T13:18:58;2.97;;;2.13;;
8293;SDS011;4185;41.506;24.938;2023-08-06T13:21:30;2.50;;;2.30;;
8293;SDS011;4185;41.506;24.938;2023-08-06T13:23:58;2.15;;;1.95;;
8293;SDS011;4185;41.506;24.938;2023-08-06T13:26:25;2.03;;;1.90;;
8293;SDS011;4185;41.506;24.938;2023-08-06T13:28:52;3.22;;;1.90;;
8293;SDS011;4185;41.506;24.938;2023-08-06T13:31:18;2.25;;;2.03;;
8293;SDS011;4185;41.506;24.938;2023-08-06T13:33:45;3.20;;;2.50;;
8293;SDS011;4185;41.506;24.938;2023-08-06T13:36:14;2.30;;;2.10;;
8293;SDS011;4185;41.506;24.938;2023-08-06T13:38:41;2.15;;;1.95;;
8293;SDS011;4185;41.506;24.938;2023-08-06T13:41:08;2.58;;;2.20;;
8293;SDS011;4185;41.506;24.938;2023-08-06T13:43:35;3.65;;;2.15;;
8293;SDS011;4185;41.506;24.938;2023-08-06T13:46:02;4.03;;;1.80;;
8293;SDS011;4185;41.506;24.938;2023-08-06T13:48:29;1.95;;;1.85;;
8293;SDS011;4185;41.506;24.938;2023-08-06T13:50:56;3.63;;;1.67;;
8293;SDS011;4185;41.506;24.938;2023-08-06T13:53:24;1.98;;;1.77;;
8293;SDS011;4185;41.506;24.938;2023-08-06T13:55:55;1.75;;;1.65;;
8293;SDS011;4185;41.506;24.938;2023-08-06T13:58:21;2.20;;;1.80;;
8293;SDS011;4185;41.506;24.938;2023-08-06T14:00:48;2.92;;;1.70;;
8293;SDS011;4185;41.506;24.938;2023-08-06T14:03:18;1.73;;;1.58;;
8293;SDS011;4185;41.506;24.938;2023-08-06T14:05:44;3.65;;;2.80;;
8293;SDS011;4185;41.506;24.938;2023-08-06T14:08:11;4.65;;;1.50;;
8293;SDS011;4185;41.506;24.938;2023-08-06T14:10:40;1.73;;;1.63;;
8293;SDS011;4185;41.506;24.938;2023-08-06T14:13:07;5.57;;;1.73;;
8293;SDS011;4185;41.506;24.938;2023-08-06T14:15:33;1.85;;;1.73;;
8293;SDS011;4185;41.506;24.938;2023-08-06T14:18:01;1.95;;;1.75;;
8293;SDS011;4185;41.506;24.938;2023-08-06T14:20:28;1.67;;;1.52;;
8293;SDS011;4185;41.506;24.938;2023-08-06T14:22:56;1.35;;;1.25;;
8293;SDS011;4185;41.506;24.938;2023-08-06T14:25:23;1.65;;;1.55;;
8293;SDS011;4185;41.506;24.938;2023-08-06T14:27:51;1.75;;;1.50;;
8293;SDS011;4185;41.506;24.938;2023-08-06T14:30:18;1.60;;;1.50;;
8293;SDS011;4185;41.506;24.938;2023-08-06T14:32:45;2.80;;;1.45;;
8293;SDS011;4185;41.506;24.938;2023-08-06T14:35:12;1.52;;;1.23;;
8293;SDS011;4185;41.506;24.938;2023-08-06T14:37:39;1.80;;;1.40;;
8293;SDS011;4185;41.506;24.938;2023-08-06T14:40:06;1.50;;;1.40;;
8293;SDS011;4185;41.506;24.938;2023-08-06T14:42:34;2.17;;;1.40;;
8293;SDS011;4185;41.506;24.938;2023-08-06T14:45:02;1.65;;;1.40;;
8293;SDS011;4185;41.506;24.938;2023-08-06T14:47:30;2.05;;;1.45;;
8293;SDS011;4185;41.506;24.938;2023-08-06T14:49:56;1.15;;;1.05;;
8293;SDS011;4185;41.506;24.938;2023-08-06T14:52:23;1.30;;;1.20;;
8293;SDS011;4185;41.506;24.938;2023-08-06T14:54:50;1.67;;;1.25;;
8293;SDS011;4185;41.506;24.938;2023-08-06T14:57:17;2.00;;;1.33;;
8293;SDS011;4185;41.506;24.938;2023-08-06T14:59:44;1.33;;;1.15;;